sensor_id;sensor_type;location;lat;lon;timestamp;temperature;humidity
20398;DHT22;10358;49.590;11.030;2022-11-23T00:01:48;4.40;99.90
20398;DHT22;10358;49.590;11.030;2022-11-23T00:04:14;4.40;99.90
20398;DHT22;10358;49.590;11.030;2022-11-23T00:06:39;4.40;99.90
20398;DHT22;10358;49.590;11.030;2022-11-23T00:09:05;4.40;99.90
20398;DHT22;10358;49.590;11.030;2022-11-23T00:11:33;4.40;99.90
20398;DHT22;10358;49.590;11.030;2022-11-23T00:13:59;4.40;99.90
20398;DHT22;10358;49.590;11.030;2022-11-23T00:16:27;4.40;99.90
20398;DHT22;10358;49.590;11.030;2022-11-23T00:18:54;4.40;99.90
20398;DHT22;10358;49.590;11.030;2022-11-23T00:21:21;4.40;99.90
20398;DHT22;10358;49.590;11.030;2022-11-23T00:23:47;4.30;99.90
20398;DHT22;10358;49.590;11.030;2022-11-23T00:26:13;4.30;99.90
20398;DHT22;10358;49.590;11.030;2022-11-23T00:28:40;4.30;99.90
20398;DHT22;10358;49.590;11.030;2022-11-23T00:31:07;4.20;99.90
20398;DHT22;10358;49.590;11.030;2022-11-23T00:33:33;4.20;99.90
20398;DHT22;10358;49.590;11.030;2022-11-23T00:36:00;4.20;99.90
20398;DHT22;10358;49.590;11.030;2022-11-23T00:38:27;4.20;99.90
20398;DHT22;10358;49.590;11.030;2022-11-23T00:41:14;4.20;99.90
20398;DHT22;10358;49.590;11.030;2022-11-23T00:43:40;4.20;99.90
20398;DHT22;10358;49.590;11.030;2022-11-23T00:46:26;4.20;99.90
20398;DHT22;10358;49.590;11.030;2022-11-23T00:48:53;4.10;99.90
20398;DHT22;10358;49.590;11.030;2022-11-23T00:51:21;4.10;99.90
20398;DHT22;10358;49.590;11.030;2022-11-23T00:53:49;4.00;99.90
20398;DHT22;10358;49.590;11.030;2022-11-23T00:56:14;3.90;99.90
20398;DHT22;10358;49.590;11.030;2022-11-23T00:58:41;3.90;99.90
20398;DHT22;10358;49.590;11.030;2022-11-23T01:01:12;3.80;99.90
20398;DHT22;10358;49.590;11.030;2022-11-23T01:03:41;3.80;99.90
20398;DHT22;10358;49.590;11.030;2022-11-23T01:06:12;3.70;99.90
20398;DHT22;10358;49.590;11.030;2022-11-23T01:08:38;3.60;99.90
20398;DHT22;10358;49.590;11.030;2022-11-23T01:11:09;3.60;99.90
20398;DHT22;10358;49.590;11.030;2022-11-23T01:13:37;3.50;99.90
20398;DHT22;10358;49.590;11.030;2022-11-23T01:16:03;3.50;99.90
20398;DHT22;10358;49.590;11.030;2022-11-23T01:18:29;3.40;99.90
20398;DHT22;10358;49.590;11.030;2022-11-23T01:20:55;3.40;99.90
20398;DHT22;10358;49.590;11.030;2022-11-23T01:23:20;3.30;99.90
20398;DHT22;10358;49.590;11.030;2022-11-23T01:25:46;3.30;99.90
20398;DHT22;10358;49.590;11.030;2022-11-23T01:28:11;3.30;99.90
20398;DHT22;10358;49.590;11.030;2022-11-23T01:30:37;3.30;99.90
20398;DHT22;10358;49.590;11.030;2022-11-23T01:33:03;3.20;99.90
20398;DHT22;10358;49.590;11.030;2022-11-23T01:35:29;3.10;99.90
20398;DHT22;10358;49.590;11.030;2022-11-23T01:37:55;3.10;99.90
20398;DHT22;10358;49.590;11.030;2022-11-23T01:40:20;3.10;99.90
20398;DHT22;10358;49.590;11.030;2022-11-23T01:42:58;3.00;99.90
20398;DHT22;10358;49.590;11.030;2022-11-23T01:45:54;3.00;99.90
20398;DHT22;10358;49.590;11.030;2022-11-23T01:50:55;2.90;99.90
20398;DHT22;10358;49.590;11.030;2022-11-23T01:53:22;2.90;99.90
20398;DHT22;10358;49.590;11.030;2022-11-23T01:55:48;2.90;99.90
20398;DHT22;10358;49.590;11.030;2022-11-23T01:58:18;2.90;99.90
20398;DHT22;10358;49.590;11.030;2022-11-23T02:00:44;2.80;99.90
20398;DHT22;10358;49.590;11.030;2022-11-23T02:03:10;2.70;99.90
20398;DHT22;10358;49.590;11.030;2022-11-23T02:06:03;2.70;99.90
20398;DHT22;10358;49.590;11.030;2022-11-23T02:08:31;2.70;99.90
20398;DHT22;10358;49.590;11.030;2022-11-23T02:10:57;2.70;99.90
20398;DHT22;10358;49.590;11.030;2022-11-23T02:13:25;2.70;99.90
20398;DHT22;10358;49.590;11.030;2022-11-23T02:15:52;2.60;99.90
20398;DHT22;10358;49.590;11.030;2022-11-23T02:18:22;2.60;99.90
20398;DHT22;10358;49.590;11.030;2022-11-23T02:20:48;2.60;99.90
20398;DHT22;10358;49.590;11.030;2022-11-23T02:26:00;2.70;99.90
20398;DHT22;10358;49.590;11.030;2022-11-23T02:28:35;2.70;99.90
20398;DHT22;10358;49.590;11.030;2022-11-23T02:31:02;2.70;99.90
20398;DHT22;10358;49.590;11.030;2022-11-23T02:33:29;2.70;99.90
20398;DHT22;10358;49.590;11.030;2022-11-23T02:35:59;2.80;99.90
20398;DHT22;10358;49.590;11.030;2022-11-23T02:38:29;2.80;99.90
20398;DHT22;10358;49.590;11.030;2022-11-23T02:40:56;2.80;99.90
20398;DHT22;10358;49.590;11.030;2022-11-23T02:43:22;2.90;99.90
20398;DHT22;10358;49.590;11.030;2022-11-23T02:45:52;2.90;99.90
20398;DHT22;10358;49.590;11.030;2022-11-23T02:48:18;3.00;99.90
20398;DHT22;10358;49.590;11.030;2022-11-23T02:50:43;3.00;99.90
20398;DHT22;10358;49.590;11.030;2022-11-23T02:53:09;3.00;99.90
20398;DHT22;10358;49.590;11.030;2022-11-23T02:55:35;3.00;99.90
20398;DHT22;10358;49.590;11.030;2022-11-23T02:58:01;3.00;99.90
20398;DHT22;10358;49.590;11.030;2022-11-23T03:00:27;3.00;99.90
20398;DHT22;10358;49.590;11.030;2022-11-23T03:02:53;2.90;99.90
20398;DHT22;10358;49.590;11.030;2022-11-23T03:05:18;2.90;99.90
20398;DHT22;10358;49.590;11.030;2022-11-23T03:07:44;2.90;99.90
20398;DHT22;10358;49.590;11.030;2022-11-23T03:10:09;2.90;99.90
20398;DHT22;10358;49.590;11.030;2022-11-23T03:12:35;2.90;99.90
20398;DHT22;10358;49.590;11.030;2022-11-23T03:15:01;2.90;99.90
20398;DHT22;10358;49.590;11.030;2022-11-23T03:17:26;2.90;99.90
20398;DHT22;10358;49.590;11.030;2022-11-23T03:19:52;2.90;99.90
20398;DHT22;10358;49.590;11.030;2022-11-23T03:22:18;2.90;99.90
20398;DHT22;10358;49.590;11.030;2022-11-23T03:24:44;2.90;99.90
20398;DHT22;10358;49.590;11.030;2022-11-23T03:27:10;2.90;99.90
20398;DHT22;10358;49.590;11.030;2022-11-23T03:29:35;2.90;99.90
20398;DHT22;10358;49.590;11.030;2022-11-23T03:32:01;2.90;99.90
20398;DHT22;10358;49.590;11.030;2022-11-23T03:34:27;3.00;99.90
20398;DHT22;10358;49.590;11.030;2022-11-23T03:36:52;2.90;99.90
20398;DHT22;10358;49.590;11.030;2022-11-23T03:39:18;3.00;99.90
20398;DHT22;10358;49.590;11.030;2022-11-23T03:41:43;3.00;99.90
20398;DHT22;10358;49.590;11.030;2022-11-23T03:44:09;3.10;99.90
20398;DHT22;10358;49.590;11.030;2022-11-23T03:46:34;3.20;99.90
20398;DHT22;10358;49.590;11.030;2022-11-23T03:49:00;3.20;99.90
20398;DHT22;10358;49.590;11.030;2022-11-23T03:51:26;3.20;99.90
20398;DHT22;10358;49.590;11.030;2022-11-23T03:53:51;3.20;99.90
20398;DHT22;10358;49.590;11.030;2022-11-23T03:56:17;3.10;99.90
20398;DHT22;10358;49.590;11.030;2022-11-23T03:58:42;3.10;99.90
20398;DHT22;10358;49.590;11.030;2022-11-23T04:01:08;3.10;99.90
20398;DHT22;10358;49.590;11.030;2022-11-23T04:03:33;3.20;99.90
20398;DHT22;10358;49.590;11.030;2022-11-23T04:05:59;3.20;99.90
20398;DHT22;10358;49.590;11.030;2022-11-23T04:08:25;3.20;99.90
20398;DHT22;10358;49.590;11.030;2022-11-23T04:10:50;3.40;99.90
20398;DHT22;10358;49.590;11.030;2022-11-23T04:13:16;3.40;99.90
20398;DHT22;10358;49.590;11.030;2022-11-23T04:15:42;3.50;99.90
20398;DHT22;10358;49.590;11.030;2022-11-23T04:18:07;3.50;99.90
20398;DHT22;10358;49.590;11.030;2022-11-23T04:20:33;3.50;99.90
20398;DHT22;10358;49.590;11.030;2022-11-23T04:22:58;3.60;99.90
20398;DHT22;10358;49.590;11.030;2022-11-23T04:25:24;3.60;99.90
20398;DHT22;10358;49.590;11.030;2022-11-23T04:27:49;3.60;99.90
20398;DHT22;10358;49.590;11.030;2022-11-23T04:30:15;3.70;99.90
20398;DHT22;10358;49.590;11.030;2022-11-23T04:32:43;3.70;99.90
20398;DHT22;10358;49.590;11.030;2022-11-23T04:35:09;3.70;99.90
20398;DHT22;10358;49.590;11.030;2022-11-23T04:37:35;3.60;99.90
20398;DHT22;10358;49.590;11.030;2022-11-23T04:40:00;3.60;99.90
20398;DHT22;10358;49.590;11.030;2022-11-23T04:42:26;3.60;99.90
20398;DHT22;10358;49.590;11.030;2022-11-23T04:44:51;3.60;99.90
20398;DHT22;10358;49.590;11.030;2022-11-23T04:47:17;3.70;99.90
20398;DHT22;10358;49.590;11.030;2022-11-23T04:49:42;3.80;99.90
20398;DHT22;10358;49.590;11.030;2022-11-23T04:52:08;3.80;99.90
20398;DHT22;10358;49.590;11.030;2022-11-23T04:54:33;3.80;99.90
20398;DHT22;10358;49.590;11.030;2022-11-23T04:56:59;3.80;99.90
20398;DHT22;10358;49.590;11.030;2022-11-23T04:59:24;3.80;99.90
20398;DHT22;10358;49.590;11.030;2022-11-23T05:01:50;3.80;99.90
20398;DHT22;10358;49.590;11.030;2022-11-23T05:04:18;3.80;99.90
20398;DHT22;10358;49.590;11.030;2022-11-23T05:06:45;3.90;99.90
20398;DHT22;10358;49.590;11.030;2022-11-23T05:09:11;3.90;99.90
20398;DHT22;10358;49.590;11.030;2022-11-23T05:11:37;3.90;99.90
20398;DHT22;10358;49.590;11.030;2022-11-23T05:14:02;3.90;99.90
20398;DHT22;10358;49.590;11.030;2022-11-23T05:16:28;3.90;99.90
20398;DHT22;10358;49.590;11.030;2022-11-23T05:18:53;3.90;99.90
20398;DHT22;10358;49.590;11.030;2022-11-23T05:21:19;3.80;99.90
20398;DHT22;10358;49.590;11.030;2022-11-23T05:23:45;3.90;99.90
20398;DHT22;10358;49.590;11.030;2022-11-23T05:26:10;3.90;99.90
20398;DHT22;10358;49.590;11.030;2022-11-23T05:28:36;3.90;99.90
20398;DHT22;10358;49.590;11.030;2022-11-23T05:31:03;3.90;99.90
20398;DHT22;10358;49.590;11.030;2022-11-23T05:33:28;4.00;99.90
20398;DHT22;10358;49.590;11.030;2022-11-23T05:35:54;4.00;99.90
20398;DHT22;10358;49.590;11.030;2022-11-23T05:38:19;4.00;99.90
20398;DHT22;10358;49.590;11.030;2022-11-23T05:40:45;4.00;99.90
20398;DHT22;10358;49.590;11.030;2022-11-23T05:43:11;4.00;99.90
20398;DHT22;10358;49.590;11.030;2022-11-23T05:45:36;4.00;99.90
20398;DHT22;10358;49.590;11.030;2022-11-23T05:48:02;4.00;99.90
20398;DHT22;10358;49.590;11.030;2022-11-23T05:50:28;4.00;99.90
20398;DHT22;10358;49.590;11.030;2022-11-23T05:52:57;4.00;99.90
20398;DHT22;10358;49.590;11.030;2022-11-23T05:55:22;4.00;99.90
20398;DHT22;10358;49.590;11.030;2022-11-23T05:57:48;4.00;99.90
20398;DHT22;10358;49.590;11.030;2022-11-23T06:00:14;4.00;99.90
20398;DHT22;10358;49.590;11.030;2022-11-23T06:02:40;4.10;99.90
20398;DHT22;10358;49.590;11.030;2022-11-23T06:05:06;4.10;99.90
20398;DHT22;10358;49.590;11.030;2022-11-23T06:07:32;4.10;99.90
20398;DHT22;10358;49.590;11.030;2022-11-23T06:09:57;4.10;99.90
20398;DHT22;10358;49.590;11.030;2022-11-23T06:12:23;4.10;99.90
20398;DHT22;10358;49.590;11.030;2022-11-23T06:14:49;4.10;99.90
20398;DHT22;10358;49.590;11.030;2022-11-23T06:17:14;4.10;99.90
20398;DHT22;10358;49.590;11.030;2022-11-23T06:19:40;4.10;99.90
20398;DHT22;10358;49.590;11.030;2022-11-23T06:22:05;4.10;99.90
20398;DHT22;10358;49.590;11.030;2022-11-23T06:24:31;4.10;99.90
20398;DHT22;10358;49.590;11.030;2022-11-23T06:26:57;4.20;99.90
20398;DHT22;10358;49.590;11.030;2022-11-23T06:29:22;4.20;99.90
20398;DHT22;10358;49.590;11.030;2022-11-23T06:31:48;4.30;99.90
20398;DHT22;10358;49.590;11.030;2022-11-23T06:34:14;4.30;99.90
20398;DHT22;10358;49.590;11.030;2022-11-23T06:36:39;4.30;99.90
20398;DHT22;10358;49.590;11.030;2022-11-23T06:39:05;4.30;99.90
20398;DHT22;10358;49.590;11.030;2022-11-23T06:41:31;4.30;99.90
20398;DHT22;10358;49.590;11.030;2022-11-23T06:43:56;4.30;99.90
20398;DHT22;10358;49.590;11.030;2022-11-23T06:46:22;4.30;99.90
20398;DHT22;10358;49.590;11.030;2022-11-23T06:48:47;4.30;99.90
20398;DHT22;10358;49.590;11.030;2022-11-23T06:51:14;4.30;99.90
20398;DHT22;10358;49.590;11.030;2022-11-23T06:53:40;4.30;99.90
20398;DHT22;10358;49.590;11.030;2022-11-23T06:56:06;4.30;99.90
20398;DHT22;10358;49.590;11.030;2022-11-23T06:58:32;4.40;99.90
20398;DHT22;10358;49.590;11.030;2022-11-23T07:00:59;4.30;99.90
20398;DHT22;10358;49.590;11.030;2022-11-23T07:03:26;4.40;99.90
20398;DHT22;10358;49.590;11.030;2022-11-23T07:05:51;4.40;99.90
20398;DHT22;10358;49.590;11.030;2022-11-23T07:08:17;4.40;99.90
20398;DHT22;10358;49.590;11.030;2022-11-23T07:10:42;4.40;99.90
20398;DHT22;10358;49.590;11.030;2022-11-23T07:13:08;4.40;99.90
20398;DHT22;10358;49.590;11.030;2022-11-23T07:15:35;4.40;99.90
20398;DHT22;10358;49.590;11.030;2022-11-23T07:18:01;4.40;99.90
20398;DHT22;10358;49.590;11.030;2022-11-23T07:20:27;4.40;99.90
20398;DHT22;10358;49.590;11.030;2022-11-23T07:23:04;4.50;99.90
20398;DHT22;10358;49.590;11.030;2022-11-23T07:25:31;4.50;99.90
20398;DHT22;10358;49.590;11.030;2022-11-23T07:27:58;4.50;99.90
20398;DHT22;10358;49.590;11.030;2022-11-23T07:30:25;4.60;99.90
20398;DHT22;10358;49.590;11.030;2022-11-23T07:32:51;4.70;99.90
20398;DHT22;10358;49.590;11.030;2022-11-23T07:35:18;4.60;99.90
20398;DHT22;10358;49.590;11.030;2022-11-23T07:37:44;4.60;99.90
20398;DHT22;10358;49.590;11.030;2022-11-23T07:40:10;4.60;99.90
20398;DHT22;10358;49.590;11.030;2022-11-23T07:42:36;4.70;99.90
20398;DHT22;10358;49.590;11.030;2022-11-23T07:45:03;4.60;99.90
20398;DHT22;10358;49.590;11.030;2022-11-23T07:47:29;4.70;99.90
20398;DHT22;10358;49.590;11.030;2022-11-23T07:49:54;4.70;99.90
20398;DHT22;10358;49.590;11.030;2022-11-23T07:52:20;4.70;99.90
20398;DHT22;10358;49.590;11.030;2022-11-23T07:54:45;4.80;99.90
20398;DHT22;10358;49.590;11.030;2022-11-23T07:57:11;4.80;99.90
20398;DHT22;10358;49.590;11.030;2022-11-23T07:59:37;4.90;99.90
20398;DHT22;10358;49.590;11.030;2022-11-23T08:02:02;4.90;99.90
20398;DHT22;10358;49.590;11.030;2022-11-23T08:04:28;4.90;99.90
20398;DHT22;10358;49.590;11.030;2022-11-23T08:06:54;4.90;99.90
20398;DHT22;10358;49.590;11.030;2022-11-23T08:09:20;5.00;99.90
20398;DHT22;10358;49.590;11.030;2022-11-23T08:11:45;5.00;99.90
20398;DHT22;10358;49.590;11.030;2022-11-23T08:14:11;5.00;99.90
20398;DHT22;10358;49.590;11.030;2022-11-23T08:16:36;5.00;99.90
20398;DHT22;10358;49.590;11.030;2022-11-23T08:19:02;5.00;99.90
20398;DHT22;10358;49.590;11.030;2022-11-23T08:21:28;5.10;99.90
20398;DHT22;10358;49.590;11.030;2022-11-23T08:23:53;5.10;99.90
20398;DHT22;10358;49.590;11.030;2022-11-23T08:26:19;5.20;99.90
20398;DHT22;10358;49.590;11.030;2022-11-23T08:28:45;5.20;99.90
20398;DHT22;10358;49.590;11.030;2022-11-23T08:31:11;5.20;99.90
20398;DHT22;10358;49.590;11.030;2022-11-23T08:33:39;5.30;99.90
20398;DHT22;10358;49.590;11.030;2022-11-23T08:36:06;5.30;99.90
20398;DHT22;10358;49.590;11.030;2022-11-23T08:38:32;5.30;99.90
20398;DHT22;10358;49.590;11.030;2022-11-23T08:40:59;5.40;99.90
20398;DHT22;10358;49.590;11.030;2022-11-23T08:43:25;5.40;99.90
20398;DHT22;10358;49.590;11.030;2022-11-23T08:45:57;5.40;99.90
20398;DHT22;10358;49.590;11.030;2022-11-23T08:48:24;5.50;99.90
20398;DHT22;10358;49.590;11.030;2022-11-23T08:50:50;5.50;99.90
20398;DHT22;10358;49.590;11.030;2022-11-23T08:53:16;5.50;99.90
20398;DHT22;10358;49.590;11.030;2022-11-23T08:55:41;5.60;99.90
20398;DHT22;10358;49.590;11.030;2022-11-23T08:58:07;5.60;99.90
20398;DHT22;10358;49.590;11.030;2022-11-23T09:00:33;5.70;99.90
20398;DHT22;10358;49.590;11.030;2022-11-23T09:02:59;5.70;99.90
20398;DHT22;10358;49.590;11.030;2022-11-23T09:05:25;5.80;99.90
20398;DHT22;10358;49.590;11.030;2022-11-23T09:07:51;5.90;99.90
20398;DHT22;10358;49.590;11.030;2022-11-23T09:10:16;5.90;99.90
20398;DHT22;10358;49.590;11.030;2022-11-23T09:12:42;6.00;99.90
20398;DHT22;10358;49.590;11.030;2022-11-23T09:15:08;6.10;99.90
20398;DHT22;10358;49.590;11.030;2022-11-23T09:17:35;6.10;99.90
20398;DHT22;10358;49.590;11.030;2022-11-23T09:20:00;6.20;99.90
20398;DHT22;10358;49.590;11.030;2022-11-23T09:22:26;6.20;99.90
20398;DHT22;10358;49.590;11.030;2022-11-23T09:24:52;6.30;99.90
20398;DHT22;10358;49.590;11.030;2022-11-23T09:27:18;6.30;99.90
20398;DHT22;10358;49.590;11.030;2022-11-23T09:29:44;6.40;99.90
20398;DHT22;10358;49.590;11.030;2022-11-23T09:32:10;6.40;99.90
20398;DHT22;10358;49.590;11.030;2022-11-23T09:34:35;6.50;99.90
20398;DHT22;10358;49.590;11.030;2022-11-23T09:37:01;6.60;99.90
20398;DHT22;10358;49.590;11.030;2022-11-23T09:39:26;6.70;99.90
20398;DHT22;10358;49.590;11.030;2022-11-23T09:52:31;7.10;99.90
20398;DHT22;10358;49.590;11.030;2022-11-23T09:55:03;7.20;99.90
20398;DHT22;10358;49.590;11.030;2022-11-23T09:57:32;7.30;99.90
20398;DHT22;10358;49.590;11.030;2022-11-23T10:00:07;7.40;99.90
20398;DHT22;10358;49.590;11.030;2022-11-23T10:02:40;7.40;99.90
20398;DHT22;10358;49.590;11.030;2022-11-23T10:05:06;7.40;99.90
20398;DHT22;10358;49.590;11.030;2022-11-23T10:13:51;7.60;99.90
20398;DHT22;10358;49.590;11.030;2022-11-23T10:16:35;7.60;99.90
20398;DHT22;10358;49.590;11.030;2022-11-23T10:22:08;7.80;99.90
20398;DHT22;10358;49.590;11.030;2022-11-23T10:24:42;7.90;99.90
20398;DHT22;10358;49.590;11.030;2022-11-23T10:27:17;7.90;99.90
20398;DHT22;10358;49.590;11.030;2022-11-23T10:29:43;8.00;99.90
20398;DHT22;10358;49.590;11.030;2022-11-23T10:35:03;8.10;99.90
20398;DHT22;10358;49.590;11.030;2022-11-23T10:37:31;8.20;99.90
20398;DHT22;10358;49.590;11.030;2022-11-23T10:39:57;8.30;99.90
20398;DHT22;10358;49.590;11.030;2022-11-23T10:42:44;8.40;99.90
20398;DHT22;10358;49.590;11.030;2022-11-23T10:45:22;8.40;99.90
20398;DHT22;10358;49.590;11.030;2022-11-23T10:47:51;8.50;99.90
20398;DHT22;10358;49.590;11.030;2022-11-23T10:53:18;8.60;99.90
20398;DHT22;10358;49.590;11.030;2022-11-23T10:55:55;8.70;99.90
20398;DHT22;10358;49.590;11.030;2022-11-23T10:58:32;8.80;99.90
20398;DHT22;10358;49.590;11.030;2022-11-23T11:01:03;8.80;99.90
20398;DHT22;10358;49.590;11.030;2022-11-23T11:03:32;8.90;99.90
20398;DHT22;10358;49.590;11.030;2022-11-23T11:05:58;9.00;99.90
20398;DHT22;10358;49.590;11.030;2022-11-23T11:08:32;9.10;99.90
20398;DHT22;10358;49.590;11.030;2022-11-23T11:11:00;9.20;99.90
20398;DHT22;10358;49.590;11.030;2022-11-23T11:15:55;9.30;99.90
20398;DHT22;10358;49.590;11.030;2022-11-23T11:18:24;9.30;99.90
20398;DHT22;10358;49.590;11.030;2022-11-23T11:20:56;9.40;99.90
20398;DHT22;10358;49.590;11.030;2022-11-23T11:23:22;9.40;99.90
20398;DHT22;10358;49.590;11.030;2022-11-23T11:25:49;9.40;99.90
20398;DHT22;10358;49.590;11.030;2022-11-23T11:28:39;9.50;99.90
20398;DHT22;10358;49.590;11.030;2022-11-23T11:36:31;9.80;99.90
20398;DHT22;10358;49.590;11.030;2022-11-23T11:39:02;9.90;99.90
20398;DHT22;10358;49.590;11.030;2022-11-23T11:41:31;10.00;99.90
20398;DHT22;10358;49.590;11.030;2022-11-23T11:44:22;10.00;99.90
20398;DHT22;10358;49.590;11.030;2022-11-23T11:46:52;10.10;99.90
20398;DHT22;10358;49.590;11.030;2022-11-23T11:52:16;10.10;99.90
20398;DHT22;10358;49.590;11.030;2022-11-23T11:55:04;10.10;99.90
20398;DHT22;10358;49.590;11.030;2022-11-23T11:57:41;10.10;99.90
20398;DHT22;10358;49.590;11.030;2022-11-23T12:00:18;10.00;99.90
20398;DHT22;10358;49.590;11.030;2022-11-23T12:05:42;9.90;99.90
20398;DHT22;10358;49.590;11.030;2022-11-23T12:08:25;9.90;99.90
20398;DHT22;10358;49.590;11.030;2022-11-23T12:10:57;9.90;99.90
20398;DHT22;10358;49.590;11.030;2022-11-23T12:13:26;10.00;99.90
20398;DHT22;10358;49.590;11.030;2022-11-23T12:18:50;10.00;99.90
20398;DHT22;10358;49.590;11.030;2022-11-23T12:24:12;10.00;99.90
20398;DHT22;10358;49.590;11.030;2022-11-23T12:26:53;10.10;99.90
20398;DHT22;10358;49.590;11.030;2022-11-23T12:35:19;10.20;99.90
20398;DHT22;10358;49.590;11.030;2022-11-23T12:46:44;10.30;99.90
20398;DHT22;10358;49.590;11.030;2022-11-23T12:55:22;10.40;99.30
20398;DHT22;10358;49.590;11.030;2022-11-23T12:57:57;10.40;99.70
20398;DHT22;10358;49.590;11.030;2022-11-23T13:00:30;10.50;99.30
20398;DHT22;10358;49.590;11.030;2022-11-23T13:16:25;11.00;97.70
20398;DHT22;10358;49.590;11.030;2022-11-23T13:19:17;11.00;96.90
20398;DHT22;10358;49.590;11.030;2022-11-23T13:21:45;11.10;95.90
20398;DHT22;10358;49.590;11.030;2022-11-23T13:24:32;11.10;96.00
20398;DHT22;10358;49.590;11.030;2022-11-23T13:40:34;11.60;92.90
20398;DHT22;10358;49.590;11.030;2022-11-23T13:43:29;11.60;93.00
20398;DHT22;10358;49.590;11.030;2022-11-23T13:46:24;11.70;92.10
20398;DHT22;10358;49.590;11.030;2022-11-23T13:48:57;11.80;92.20
20398;DHT22;10358;49.590;11.030;2022-11-23T13:51:32;11.90;92.30
20398;DHT22;10358;49.590;11.030;2022-11-23T13:54:04;12.00;91.50
20398;DHT22;10358;49.590;11.030;2022-11-23T13:56:39;12.00;91.10
20398;DHT22;10358;49.590;11.030;2022-11-23T13:59:26;12.00;89.90
20398;DHT22;10358;49.590;11.030;2022-11-23T14:04:40;12.10;87.50
20398;DHT22;10358;49.590;11.030;2022-11-23T14:12:59;12.30;86.70
20398;DHT22;10358;49.590;11.030;2022-11-23T14:15:21;12.30;84.80
20398;DHT22;10358;49.590;11.030;2022-11-23T14:18:36;12.30;85.50
20398;DHT22;10358;49.590;11.030;2022-11-23T14:40:24;12.00;88.10
20398;DHT22;10358;49.590;11.030;2022-11-23T14:42:53;11.90;87.00
20398;DHT22;10358;49.590;11.030;2022-11-23T14:45:22;11.90;89.40
20398;DHT22;10358;49.590;11.030;2022-11-23T14:47:48;11.90;89.90
20398;DHT22;10358;49.590;11.030;2022-11-23T14:50:22;11.80;90.10
20398;DHT22;10358;49.590;11.030;2022-11-23T14:52:48;11.80;90.00
20398;DHT22;10358;49.590;11.030;2022-11-23T14:55:17;11.60;90.00
20398;DHT22;10358;49.590;11.030;2022-11-23T14:57:45;11.50;90.80
20398;DHT22;10358;49.590;11.030;2022-11-23T15:02:58;11.20;91.40
20398;DHT22;10358;49.590;11.030;2022-11-23T15:05:28;11.00;91.80
20398;DHT22;10358;49.590;11.030;2022-11-23T15:08:00;10.80;92.50
20398;DHT22;10358;49.590;11.030;2022-11-23T15:12:59;10.40;93.40
20398;DHT22;10358;49.590;11.030;2022-11-23T15:15:29;10.30;94.00
20398;DHT22;10358;49.590;11.030;2022-11-23T15:18:00;10.10;94.40
20398;DHT22;10358;49.590;11.030;2022-11-23T15:20:29;10.00;95.10
20398;DHT22;10358;49.590;11.030;2022-11-23T15:22:57;9.80;95.70
20398;DHT22;10358;49.590;11.030;2022-11-23T15:25:22;9.60;96.40
20398;DHT22;10358;49.590;11.030;2022-11-23T15:27:48;9.50;97.00
20398;DHT22;10358;49.590;11.030;2022-11-23T15:30:20;9.30;97.70
20398;DHT22;10358;49.590;11.030;2022-11-23T15:33:03;9.10;98.40
20398;DHT22;10358;49.590;11.030;2022-11-23T15:35:35;8.90;99.20
20398;DHT22;10358;49.590;11.030;2022-11-23T15:38:03;8.80;99.90
20398;DHT22;10358;49.590;11.030;2022-11-23T15:40:35;8.60;99.90
20398;DHT22;10358;49.590;11.030;2022-11-23T15:43:02;8.40;99.90
20398;DHT22;10358;49.590;11.030;2022-11-23T15:51:22;8.00;99.90
20398;DHT22;10358;49.590;11.030;2022-11-23T15:53:50;7.80;99.90
20398;DHT22;10358;49.590;11.030;2022-11-23T15:56:33;7.70;99.90
20398;DHT22;10358;49.590;11.030;2022-11-23T15:59:17;7.60;99.90
20398;DHT22;10358;49.590;11.030;2022-11-23T16:01:45;7.50;99.90
20398;DHT22;10358;49.590;11.030;2022-11-23T16:04:36;7.40;99.90
20398;DHT22;10358;49.590;11.030;2022-11-23T16:07:17;7.30;99.90
20398;DHT22;10358;49.590;11.030;2022-11-23T16:09:45;7.20;99.90
20398;DHT22;10358;49.590;11.030;2022-11-23T16:14:50;7.00;99.90
20398;DHT22;10358;49.590;11.030;2022-11-23T16:17:17;6.90;99.90
20398;DHT22;10358;49.590;11.030;2022-11-23T16:19:52;6.90;99.90
20398;DHT22;10358;49.590;11.030;2022-11-23T16:22:39;6.80;99.90
20398;DHT22;10358;49.590;11.030;2022-11-23T16:25:20;6.70;99.90
20398;DHT22;10358;49.590;11.030;2022-11-23T16:28:03;6.70;99.90
20398;DHT22;10358;49.590;11.030;2022-11-23T16:30:40;6.60;99.90
20398;DHT22;10358;49.590;11.030;2022-11-23T16:33:12;6.60;99.90
20398;DHT22;10358;49.590;11.030;2022-11-23T16:35:38;6.60;99.90
20398;DHT22;10358;49.590;11.030;2022-11-23T16:38:04;6.50;99.90
20398;DHT22;10358;49.590;11.030;2022-11-23T16:40:30;6.50;99.90
20398;DHT22;10358;49.590;11.030;2022-11-23T16:42:56;6.40;99.90
20398;DHT22;10358;49.590;11.030;2022-11-23T16:45:22;6.40;99.90
20398;DHT22;10358;49.590;11.030;2022-11-23T16:48:34;6.30;99.90
20398;DHT22;10358;49.590;11.030;2022-11-23T16:51:00;6.20;99.90
20398;DHT22;10358;49.590;11.030;2022-11-23T16:53:26;6.10;99.90
20398;DHT22;10358;49.590;11.030;2022-11-23T16:55:55;6.10;99.90
20398;DHT22;10358;49.590;11.030;2022-11-23T16:58:21;6.10;99.90
20398;DHT22;10358;49.590;11.030;2022-11-23T17:00:48;6.10;99.90
20398;DHT22;10358;49.590;11.030;2022-11-23T17:03:18;6.00;99.90
20398;DHT22;10358;49.590;11.030;2022-11-23T17:05:45;6.00;99.90
20398;DHT22;10358;49.590;11.030;2022-11-23T17:08:11;5.90;99.90
20398;DHT22;10358;49.590;11.030;2022-11-23T17:10:38;5.90;99.90
20398;DHT22;10358;49.590;11.030;2022-11-23T17:13:06;5.80;99.90
20398;DHT22;10358;49.590;11.030;2022-11-23T17:15:35;5.80;99.90
20398;DHT22;10358;49.590;11.030;2022-11-23T17:18:00;5.70;99.90
20398;DHT22;10358;49.590;11.030;2022-11-23T17:20:26;5.70;99.90
20398;DHT22;10358;49.590;11.030;2022-11-23T17:22:53;5.60;99.90
20398;DHT22;10358;49.590;11.030;2022-11-23T17:25:24;5.50;99.90
20398;DHT22;10358;49.590;11.030;2022-11-23T17:27:51;5.50;99.90
20398;DHT22;10358;49.590;11.030;2022-11-23T17:30:19;5.40;99.90
20398;DHT22;10358;49.590;11.030;2022-11-23T17:32:48;5.40;99.90
20398;DHT22;10358;49.590;11.030;2022-11-23T17:35:14;5.40;99.90
20398;DHT22;10358;49.590;11.030;2022-11-23T17:37:40;5.30;99.90
20398;DHT22;10358;49.590;11.030;2022-11-23T17:40:15;5.30;99.90
20398;DHT22;10358;49.590;11.030;2022-11-23T17:42:42;5.30;99.90
20398;DHT22;10358;49.590;11.030;2022-11-23T17:45:08;5.20;99.90
20398;DHT22;10358;49.590;11.030;2022-11-23T17:47:34;5.10;99.90
20398;DHT22;10358;49.590;11.030;2022-11-23T17:49:59;5.10;99.90
20398;DHT22;10358;49.590;11.030;2022-11-23T17:52:25;5.00;99.90
20398;DHT22;10358;49.590;11.030;2022-11-23T17:54:51;5.00;99.90
20398;DHT22;10358;49.590;11.030;2022-11-23T17:57:20;5.00;99.90
20398;DHT22;10358;49.590;11.030;2022-11-23T17:59:46;5.00;99.90